Terminal Aerodrome Forecast
Issued by NWS Tampa Bay Area, FL

Home | Current Version | Previous Version | Text Only | Print | Product List | Glossary On
Versions: 1 2 3 4 5 6 7 8 9 10 11 12 13
000
FTUS42 KTBW 251700 RRA
TAFSRQ
TAF
KSRQ 251741Z 2518/2618 24007KT P6SM SCT035 SCT250
     FM260000 27006KT P6SM SCT250
     FM260200 00000KT P6SM SCT250
     FM261300 20004KT P6SM VCTS SCT035CB SCT250=

USA.gov is the U.S. government's official web portal to all federal, state and local government web resources and services.